Time;durP1;ratioP1;P1;durP2;ratioP2;P2;SDS_P1;SDS_P2;PMS_P1;PMS_P2;Temp;Humidity;BMP_temperature;BMP_pressure;BME280_temperature;BME280_humidity;BME280_pressure;Samples;Min_cycle;Max_cycle;Signal;HPM_P1;HPM_P2
2023/03/06 00:01:59;;;;;;;4.40;3.13;;;22.20;41.80;;;;;;6261269;27;80561;-63
2023/03/06 00:05:00;;;;;;;5.75;3.22;;;22.20;41.80;;;;;;6272868;27;81447;-63
2023/03/06 00:08:00;;;;;;;4.65;3.10;;;22.20;41.80;;;;;;6274870;27;82453;-63
2023/03/06 00:11:01;;;;;;;4.38;3.20;;;22.20;42.00;;;;;;6273120;27;80510;-62
2023/03/06 00:14:01;;;;;;;5.13;3.28;;;22.20;42.00;;;;;;6276626;27;83144;-62
2023/03/06 00:17:03;;;;;;;6.60;3.17;;;22.20;41.90;;;;;;6275667;27;81497;-61
2023/03/06 00:20:04;;;;;;;5.22;3.30;;;22.20;42.00;;;;;;6271843;27;80928;-61
2023/03/06 00:23:04;;;;;;;4.97;3.15;;;22.20;42.00;;;;;;6277372;27;80787;-61
2023/03/06 00:26:05;;;;;;;3.92;2.92;;;22.10;42.00;;;;;;6276098;27;80369;-63
2023/03/06 00:29:05;;;;;;;4.35;3.00;;;22.10;41.80;;;;;;6274528;27;81716;-63
2023/03/06 00:32:06;;;;;;;4.72;2.92;;;22.20;41.70;;;;;;6275259;27;83615;-63
2023/03/06 00:35:07;;;;;;;4.72;2.90;;;22.20;41.80;;;;;;6271838;27;81350;-62
2023/03/06 00:38:08;;;;;;;4.03;2.40;;;22.20;41.80;;;;;;6276144;27;83126;-62
2023/03/06 00:41:08;;;;;;;4.80;2.50;;;22.20;41.80;;;;;;6280196;27;80601;-62
2023/03/06 00:44:09;;;;;;;4.40;2.58;;;22.20;41.90;;;;;;6276016;27;80527;-63
2023/03/06 00:47:10;;;;;;;4.93;3.03;;;22.20;41.80;;;;;;6274078;27;80971;-63
2023/03/06 00:50:10;;;;;;;4.43;2.70;;;22.10;41.80;;;;;;6264955;27;82754;-63
2023/03/06 00:53:12;;;;;;;4.47;2.65;;;22.10;41.80;;;;;;6264046;27;80281;-63
2023/03/06 00:56:12;;;;;;;4.38;2.58;;;22.20;41.90;;;;;;6268813;27;80678;-63
2023/03/06 00:59:13;;;;;;;4.00;2.80;;;22.20;41.70;;;;;;6271986;27;81606;-62
2023/03/06 01:02:13;;;;;;;5.18;2.50;;;22.10;41.60;;;;;;6275900;27;80599;-62
2023/03/06 01:05:14;;;;;;;4.20;2.70;;;22.10;41.60;;;;;;6262495;27;80382;-60
2023/03/06 01:08:14;;;;;;;4.65;2.65;;;22.10;41.60;;;;;;6256271;27;81511;-61
2023/03/06 01:11:15;;;;;;;5.22;3.17;;;22.10;41.60;;;;;;6260433;27;83079;-61
2023/03/06 01:14:20;;;;;;;5.07;2.60;;;22.10;41.60;;;;;;6264876;27;82443;-61
2023/03/06 01:17:21;;;;;;;5.07;2.92;;;22.10;41.50;;;;;;6268533;27;80630;-60
2023/03/06 01:20:21;;;;;;;3.28;2.70;;;22.10;41.50;;;;;;6249927;27;80690;-60
2023/03/06 01:23:22;;;;;;;5.32;2.75;;;22.10;41.50;;;;;;6259672;27;81479;-61
2023/03/06 01:26:22;;;;;;;5.05;3.22;;;22.10;41.50;;;;;;6280089;27;80406;-60
2023/03/06 01:29:25;;;;;;;3.80;2.95;;;22.10;41.50;;;;;;6247091;27;83419;-60
2023/03/06 01:32:25;;;;;;;4.13;2.92;;;22.10;41.50;;;;;;6241667;27;83075;-64
2023/03/06 01:35:26;;;;;;;4.18;2.80;;;22.10;41.50;;;;;;6248915;27;82013;-64
2023/03/06 01:38:26;;;;;;;4.88;3.00;;;22.10;41.70;;;;;;6255107;27;80521;-65
2023/03/06 01:41:27;;;;;;;3.58;2.47;;;22.10;41.50;;;;;;6274826;27;80584;-65
2023/03/06 01:44:27;;;;;;;4.30;3.13;;;22.10;41.30;;;;;;6278593;27;82010;-64
2023/03/06 01:47:28;;;;;;;3.35;2.70;;;22.10;41.20;;;;;;6264875;27;81686;-65
2023/03/06 01:50:28;;;;;;;4.25;2.90;;;22.10;41.20;;;;;;6249734;28;81636;-64
2023/03/06 01:53:29;;;;;;;5.63;3.35;;;22.10;41.30;;;;;;6243741;27;83458;-64
2023/03/06 01:56:29;;;;;;;4.97;3.25;;;22.10;41.30;;;;;;6265930;27;81670;-65
2023/03/06 01:59:30;;;;;;;3.95;2.97;;;22.10;41.30;;;;;;6249226;27;83338;-63
2023/03/06 02:02:30;;;;;;;6.45;3.35;;;22.10;41.40;;;;;;6257089;27;83234;-63
2023/03/06 02:05:31;;;;;;;4.70;3.25;;;22.10;41.40;;;;;;6275768;27;80897;-65
2023/03/06 02:08:31;;;;;;;4.82;3.35;;;22.10;41.40;;;;;;6235978;27;81991;-65
2023/03/06 02:11:32;;;;;;;4.93;3.30;;;22.10;41.50;;;;;;6228918;27;82211;-64
2023/03/06 02:14:32;;;;;;;6.25;4.05;;;22.10;41.50;;;;;;6260327;27;92005;-64
2023/03/06 02:17:33;;;;;;;5.63;3.78;;;22.00;41.40;;;;;;6264425;27;81364;-63
2023/03/06 02:20:33;;;;;;;7.85;4.25;;;22.10;41.50;;;;;;6270194;27;80169;-62
2023/03/06 02:23:34;;;;;;;9.52;4.32;;;22.10;41.40;;;;;;6279274;27;80564;-63
2023/03/06 02:26:34;;;;;;;6.22;3.88;;;22.10;41.50;;;;;;6278983;27;81987;-66
2023/03/06 02:29:35;;;;;;;6.32;4.18;;;22.10;41.60;;;;;;6279283;27;81040;-64
2023/03/06 02:32:37;;;;;;;7.78;3.90;;;22.10;41.60;;;;;;6245936;27;83051;-63
2023/03/06 02:35:37;;;;;;;5.15;3.90;;;22.10;41.60;;;;;;6272468;27;80700;-65
2023/03/06 02:38:38;;;;;;;6.22;3.78;;;22.10;41.60;;;;;;6234271;27;81559;-63
2023/03/06 02:41:38;;;;;;;7.07;4.28;;;22.10;41.40;;;;;;6268180;27;82821;-64
2023/03/06 02:44:40;;;;;;;7.63;3.35;;;22.10;41.50;;;;;;6271978;27;80840;-62
2023/03/06 02:47:40;;;;;;;8.10;4.00;;;22.00;41.60;;;;;;6260391;27;84324;-64
2023/03/06 02:50:41;;;;;;;7.47;3.70;;;22.10;41.80;;;;;;6234650;27;84041;-64
2023/03/06 02:53:43;;;;;;;5.80;4.15;;;22.10;41.80;;;;;;6257865;27;83177;-64
2023/03/06 02:56:43;;;;;;;6.65;3.47;;;22.00;41.60;;;;;;6259894;27;83371;-63
2023/03/06 02:59:44;;;;;;;5.40;3.50;;;22.00;41.50;;;;;;6248245;27;81745;-63
2023/03/06 03:02:44;;;;;;;4.90;3.20;;;22.00;41.50;;;;;;6257002;27;82986;-64
2023/03/06 03:05:45;;;;;;;6.03;3.70;;;22.00;41.50;;;;;;6271450;27;81030;-64
2023/03/06 03:08:53;;;;;;;5.35;3.30;;;22.00;41.50;;;;;;6266637;27;81289;-62
2023/03/06 03:11:54;;;;;;;5.25;3.35;;;22.00;41.30;;;;;;6269167;27;80645;-63
2023/03/06 03:14:55;;;;;;;5.22;3.80;;;22.00;41.00;;;;;;6259211;27;84330;-63
2023/03/06 03:17:55;;;;;;;5.80;3.45;;;22.00;41.00;;;;;;6277885;27;80422;-63
2023/03/06 03:20:56;;;;;;;5.32;3.63;;;22.00;41.00;;;;;;6233581;28;83060;-62
2023/03/06 03:23:56;;;;;;;7.20;3.90;;;22.00;40.90;;;;;;6265284;27;80438;-62
2023/03/06 03:27:01;;;;;;;5.90;3.67;;;22.00;40.90;;;;;;6254271;27;83142;-63
2023/03/06 03:30:01;;;;;;;5.55;3.85;;;22.00;40.90;;;;;;6254382;27;83007;-64
2023/03/06 03:33:03;;;;;;;6.18;4.35;;;22.00;40.90;;;;;;6248935;27;82337;-64
2023/03/06 03:36:03;;;;;;;5.85;3.55;;;22.00;40.80;;;;;;6251745;27;81392;-63
2023/03/06 03:39:04;;;;;;;6.53;4.22;;;22.00;40.80;;;;;;6255583;27;82164;-63
2023/03/06 03:42:05;;;;;;;6.75;4.18;;;22.00;40.80;;;;;;6257637;27;83259;-63
2023/03/06 03:45:05;;;;;;;5.88;4.25;;;22.00;40.80;;;;;;6272651;27;82986;-64
2023/03/06 03:48:06;;;;;;;7.60;4.88;;;22.00;40.80;;;;;;6277281;27;83013;-63
2023/03/06 03:51:07;;;;;;;6.50;4.47;;;22.00;40.80;;;;;;6242445;27;81755;-65
2023/03/06 03:54:09;;;;;;;7.07;4.80;;;22.00;40.80;;;;;;6234125;27;82568;-66
2023/03/06 03:57:14;;;;;;;7.87;4.87;;;22.00;40.80;;;;;;6256317;27;82974;-60
2023/03/06 04:00:20;;;;;;;7.60;5.03;;;22.00;40.70;;;;;;6238879;27;82045;-60
2023/03/06 04:03:32;;;;;;;7.97;4.97;;;22.00;40.70;;;;;;6258591;27;83236;-59
2023/03/06 04:06:33;;;;;;;7.20;4.93;;;22.00;40.70;;;;;;6238240;27;87859;-59
2023/03/06 04:09:33;;;;;;;9.13;5.32;;;22.00;40.70;;;;;;6265753;27;82657;-59
2023/03/06 04:12:34;;;;;;;8.63;5.15;;;22.00;40.90;;;;;;6247830;27;83207;-59
2023/03/06 04:15:35;;;;;;;7.43;5.28;;;22.10;40.90;;;;;;6243580;27;83289;-61
2023/03/06 04:18:35;;;;;;;8.90;5.60;;;22.10;40.70;;;;;;6276683;27;80215;-62
2023/03/06 04:21:38;;;;;;;6.38;4.45;;;22.10;40.20;;;;;;6262450;27;85138;-65
2023/03/06 04:24:40;;;;;;;10.30;5.45;;;22.20;40.80;;;;;;6258396;27;82356;-66
2023/03/06 04:27:42;;;;;;;10.60;5.68;;;22.20;40.00;;;;;;6257977;27;83397;-66
2023/03/06 04:30:44;;;;;;;8.07;5.95;;;22.20;39.70;;;;;;6256688;27;83306;-66
2023/03/06 04:33:45;;;;;;;8.27;5.85;;;22.30;40.00;;;;;;6268954;27;81517;-65
2023/03/06 04:36:45;;;;;;;9.98;5.70;;;22.40;39.50;;;;;;6249720;27;82330;-63
2023/03/06 04:39:49;;;;;;;8.57;5.60;;;22.40;39.70;;;;;;6253102;27;87342;-62
2023/03/06 04:42:49;;;;;;;8.48;5.72;;;22.50;39.80;;;;;;6269793;27;80798;-64
2023/03/06 04:45:50;;;;;;;10.27;6.63;;;22.50;39.80;;;;;;6275403;27;80256;-67
2023/03/06 04:48:50;;;;;;;13.40;6.20;;;22.50;39.60;;;;;;6265115;27;80454;-65
2023/03/06 04:51:51;;;;;;;7.97;6.18;;;22.60;39.60;;;;;;6268328;27;80673;-63
2023/03/06 04:54:51;;;;;;;11.32;6.70;;;22.60;39.30;;;;;;6269575;27;81437;-60
2023/03/06 04:57:52;;;;;;;9.75;5.78;;;22.60;39.30;;;;;;6265113;27;80281;-64
2023/03/06 05:00:52;;;;;;;8.60;5.90;;;22.60;39.10;;;;;;6269844;27;80319;-66
2023/03/06 05:03:53;;;;;;;10.85;6.35;;;22.70;39.00;;;;;;6275295;27;80425;-65
2023/03/06 05:06:53;;;;;;;10.20;6.40;;;22.70;39.00;;;;;;6266544;27;81167;-64
2023/03/06 05:09:54;;;;;;;10.88;5.55;;;22.70;39.00;;;;;;6275102;27;80514;-63
2023/03/06 05:12:54;;;;;;;9.68;6.63;;;22.70;39.20;;;;;;6259407;27;84345;-64
2023/03/06 05:15:55;;;;;;;9.85;6.47;;;22.70;39.20;;;;;;6270344;27;80794;-63
2023/03/06 05:18:55;;;;;;;9.63;6.30;;;22.70;39.00;;;;;;6253405;27;82468;-67
2023/03/06 05:21:56;;;;;;;9.85;6.25;;;22.70;38.90;;;;;;6258713;27;80385;-68
2023/03/06 05:24:56;;;;;;;11.98;5.85;;;22.70;39.00;;;;;;6270291;27;80644;-67
2023/03/06 05:27:57;;;;;;;13.73;6.53;;;22.70;38.50;;;;;;6244197;27;80417;-68
2023/03/06 05:30:57;;;;;;;12.88;6.30;;;22.80;38.60;;;;;;6257556;27;81563;-67
2023/03/06 05:33:59;;;;;;;9.52;5.78;;;22.80;38.40;;;;;;6269897;27;81817;-65
2023/03/06 05:37:00;;;;;;;10.82;5.60;;;22.80;38.40;;;;;;6264724;27;81075;-71
2023/03/06 05:40:01;;;;;;;9.70;6.57;;;22.80;38.60;;;;;;6269015;27;80835;-70
2023/03/06 05:43:01;;;;;;;12.55;6.30;;;22.80;38.90;;;;;;6265196;27;80519;-69
2023/03/06 05:46:02;;;;;;;9.35;6.07;;;22.80;38.60;;;;;;6260986;27;81824;-63
2023/03/06 05:49:02;;;;;;;10.93;5.93;;;22.80;38.30;;;;;;6253210;27;86359;-64
2023/03/06 05:52:03;;;;;;;8.75;5.60;;;22.80;38.70;;;;;;6261751;27;81141;-63
2023/03/06 05:55:03;;;;;;;11.00;6.72;;;22.80;38.40;;;;;;6262186;27;80569;-61
2023/03/06 05:58:04;;;;;;;11.15;6.10;;;22.80;38.10;;;;;;6261112;27;80263;-62
2023/03/06 06:01:04;;;;;;;14.27;6.05;;;22.90;38.00;;;;;;6259390;27;82154;-59
2023/03/06 06:04:05;;;;;;;11.70;6.03;;;22.90;38.20;;;;;;6262240;27;80096;-61
2023/03/06 06:07:05;;;;;;;10.48;5.97;;;22.90;38.90;;;;;;6259456;27;81725;-62
2023/03/06 06:10:06;;;;;;;12.15;6.20;;;22.90;38.30;;;;;;6270893;27;80351;-61
2023/03/06 06:13:06;;;;;;;9.50;5.85;;;22.90;38.50;;;;;;6258517;27;80518;-61
2023/03/06 06:16:07;;;;;;;10.40;5.65;;;22.90;38.70;;;;;;6263335;27;80288;-63
2023/03/06 06:19:07;;;;;;;10.63;6.28;;;22.90;38.90;;;;;;6264310;27;85411;-62
2023/03/06 06:22:08;;;;;;;12.80;6.13;;;22.90;39.00;;;;;;6192436;27;82416;-61
2023/03/06 06:25:08;;;;;;;13.35;6.88;;;22.90;38.90;;;;;;6256220;27;80774;-62
2023/03/06 06:28:11;;;;;;;9.20;6.00;;;22.90;38.50;;;;;;6270669;27;80653;-62
2023/03/06 06:31:11;;;;;;;15.30;6.68;;;22.90;38.50;;;;;;6254554;27;83283;-59
2023/03/06 06:34:12;;;;;;;14.27;6.35;;;22.80;38.50;;;;;;6268927;27;81093;-59
2023/03/06 06:37:12;;;;;;;12.25;6.53;;;22.80;38.40;;;;;;6267266;27;80390;-59
2023/03/06 06:40:13;;;;;;;10.10;6.03;;;22.80;38.00;;;;;;6266217;27;83154;-59
2023/03/06 06:43:13;;;;;;;8.15;5.97;;;22.70;37.80;;;;;;6268901;27;80355;-58
2023/03/06 06:46:14;;;;;;;10.90;6.32;;;22.70;37.70;;;;;;6251704;27;81007;-59
2023/03/06 06:49:14;;;;;;;14.50;7.22;;;22.70;38.00;;;;;;6248708;27;84169;-58
2023/03/06 06:52:15;;;;;;;9.43;5.82;;;22.70;38.20;;;;;;6266801;27;81031;-58
2023/03/06 06:55:16;;;;;;;12.55;7.30;;;22.70;38.30;;;;;;6272086;27;83039;-59
2023/03/06 06:58:16;;;;;;;12.45;7.57;;;22.70;38.20;;;;;;6252335;27;80669;-60
2023/03/06 07:01:17;;;;;;;14.43;6.90;;;22.70;37.90;;;;;;6257958;27;80440;-58
2023/03/06 07:04:17;;;;;;;13.38;7.78;;;22.60;37.40;;;;;;6261191;27;85021;-58
2023/03/06 07:07:18;;;;;;;11.93;7.75;;;22.60;37.20;;;;;;6260420;27;81702;-59
2023/03/06 07:10:18;;;;;;;13.43;7.97;;;22.60;37.10;;;;;;6262718;27;80319;-59
2023/03/06 07:13:19;;;;;;;12.95;8.68;;;22.60;36.50;;;;;;6263698;27;85409;-60
2023/03/06 07:16:19;;;;;;;12.35;7.60;;;22.60;36.40;;;;;;6266748;27;85493;-60
2023/03/06 07:19:20;;;;;;;13.27;8.30;;;22.60;36.10;;;;;;6269085;27;80532;-57
2023/03/06 07:22:20;;;;;;;11.52;7.15;;;22.50;35.90;;;;;;6267931;27;80312;-59
2023/03/06 07:25:21;;;;;;;12.85;6.75;;;22.60;35.70;;;;;;6269293;27;84248;-59
2023/03/06 07:28:21;;;;;;;10.90;6.38;;;22.50;35.30;;;;;;6268341;27;82077;-60
2023/03/06 07:31:22;;;;;;;12.48;6.57;;;22.50;35.20;;;;;;6257741;27;86125;-61
2023/03/06 07:34:23;;;;;;;10.15;6.13;;;22.50;34.90;;;;;;6254260;27;83434;-61
2023/03/06 07:37:23;;;;;;;8.45;5.65;;;22.50;34.80;;;;;;6249426;27;82157;-60
2023/03/06 07:40:24;;;;;;;10.95;5.78;;;22.50;34.80;;;;;;6256209;27;80629;-60
2023/03/06 07:43:24;;;;;;;10.25;6.10;;;22.40;34.70;;;;;;6250245;27;80541;-59
2023/03/06 07:46:34;;;;;;;7.63;5.65;;;22.40;34.70;;;;;;6239999;27;83317;-61
2023/03/06 07:49:34;;;;;;;13.02;5.57;;;22.40;34.70;;;;;;6266209;27;80833;-60
2023/03/06 07:52:35;;;;;;;8.55;5.68;;;22.40;34.70;;;;;;6263740;27;81100;-61
2023/03/06 07:55:35;;;;;;;10.52;5.55;;;22.30;34.60;;;;;;6257667;27;83388;-59
2023/03/06 07:58:36;;;;;;;10.18;5.63;;;22.30;34.60;;;;;;6259783;27;85738;-60
2023/03/06 08:01:39;;;;;;;8.80;5.30;;;22.30;34.50;;;;;;6261737;27;80758;-59
2023/03/06 08:04:39;;;;;;;10.23;5.68;;;22.30;34.40;;;;;;6266112;27;80980;-61
2023/03/06 08:07:40;;;;;;;9.20;5.28;;;22.20;34.40;;;;;;6242270;27;84159;-60
2023/03/06 08:10:40;;;;;;;9.00;6.32;;;22.20;34.30;;;;;;6253707;27;80617;-61
2023/03/06 08:13:41;;;;;;;11.02;6.07;;;22.20;34.20;;;;;;6258345;27;84428;-58
2023/03/06 08:16:41;;;;;;;8.68;6.32;;;22.10;34.20;;;;;;6251589;27;82582;-59
2023/03/06 08:19:42;;;;;;;9.43;5.97;;;22.20;34.10;;;;;;6266256;27;83858;-58
2023/03/06 08:22:42;;;;;;;10.48;5.53;;;22.20;34.20;;;;;;6259406;27;83411;-59
2023/03/06 08:25:43;;;;;;;9.82;5.63;;;22.30;34.40;;;;;;6254198;27;82942;-58
2023/03/06 08:28:43;;;;;;;11.60;6.38;;;22.30;34.30;;;;;;6254248;27;84585;-59
2023/03/06 08:31:44;;;;;;;8.52;5.25;;;22.40;33.90;;;;;;6259154;27;83422;-58
2023/03/06 08:34:45;;;;;;;10.25;5.40;;;22.40;33.40;;;;;;6264522;27;80715;-58
2023/03/06 08:37:45;;;;;;;8.23;5.05;;;22.50;33.10;;;;;;6253890;27;80050;-59
2023/03/06 08:40:46;;;;;;;9.15;5.25;;;22.60;33.00;;;;;;6259493;27;80682;-59
2023/03/06 08:43:46;;;;;;;9.88;4.78;;;22.60;32.80;;;;;;6267354;27;80677;-58
2023/03/06 08:46:47;;;;;;;8.88;4.75;;;22.70;32.80;;;;;;6261159;27;80640;-45
2023/03/06 08:49:48;;;;;;;8.63;4.90;;;22.70;32.60;;;;;;6247570;27;82393;-57
2023/03/06 08:52:48;;;;;;;7.72;5.03;;;22.70;32.60;;;;;;6272033;27;81222;-55
2023/03/06 08:55:49;;;;;;;7.50;4.43;;;22.80;32.90;;;;;;6250243;27;85466;-57
2023/03/06 08:58:49;;;;;;;10.68;5.25;;;22.90;32.80;;;;;;6261099;27;80664;-58
2023/03/06 09:01:50;;;;;;;7.95;4.50;;;22.90;33.00;;;;;;6260015;27;80838;-58
2023/03/06 09:04:50;;;;;;;7.72;4.60;;;23.00;33.20;;;;;;6257877;27;80898;-57
2023/03/06 09:07:51;;;;;;;8.10;4.15;;;23.00;33.30;;;;;;6244812;27;81920;-57
2023/03/06 09:10:51;;;;;;;7.38;4.25;;;23.10;33.50;;;;;;6240041;27;82485;-56
2023/03/06 09:13:52;;;;;;;7.43;4.03;;;23.10;33.50;;;;;;6269705;27;80484;-59
2023/03/06 09:16:52;;;;;;;9.07;3.90;;;23.20;33.60;;;;;;6259396;27;81842;-59
2023/03/06 09:19:53;;;;;;;6.90;3.72;;;23.30;33.80;;;;;;6236549;27;86687;-59
2023/03/06 09:22:53;;;;;;;7.43;3.85;;;23.30;33.80;;;;;;6249612;27;81242;-58
2023/03/06 09:25:54;;;;;;;5.85;3.60;;;23.40;34.00;;;;;;6247053;27;80593;-58
2023/03/06 09:28:55;;;;;;;5.53;3.55;;;23.40;34.00;;;;;;6257741;27;87829;-70
2023/03/06 09:31:55;;;;;;;4.72;3.20;;;23.50;34.20;;;;;;6269868;27;81894;-69
2023/03/06 09:34:56;;;;;;;5.03;3.30;;;23.60;34.20;;;;;;6256944;27;82230;-67
2023/03/06 09:37:56;;;;;;;5.97;3.20;;;23.60;34.30;;;;;;6272102;27;81488;-68
2023/03/06 09:40:57;;;;;;;5.80;3.53;;;23.70;34.40;;;;;;6268879;27;80425;-67
2023/03/06 09:43:57;;;;;;;4.57;3.17;;;23.80;34.50;;;;;;6266060;27;81111;-68
2023/03/06 09:46:58;;;;;;;5.43;3.47;;;23.90;34.50;;;;;;6267969;27;80467;-65
2023/03/06 09:49:58;;;;;;;7.13;3.55;;;23.90;34.50;;;;;;6262035;27;82224;-67
2023/03/06 09:52:59;;;;;;;4.63;3.40;;;24.00;34.60;;;;;;6269753;27;81138;-68
2023/03/06 09:55:59;;;;;;;4.40;2.90;;;24.10;34.70;;;;;;6261088;27;80611;-66
2023/03/06 09:59:00;;;;;;;3.65;2.58;;;24.10;35.40;;;;;;6265720;27;81083;-68
2023/03/06 10:02:00;;;;;;;4.18;2.97;;;24.10;34.70;;;;;;6263466;27;80735;-65
2023/03/06 10:05:02;;;;;;;5.25;3.15;;;24.20;34.80;;;;;;6265288;27;81628;-63
2023/03/06 10:08:03;;;;;;;5.15;3.20;;;24.30;34.60;;;;;;6261695;27;84998;-64
2023/03/06 10:11:03;;;;;;;4.43;2.60;;;24.30;34.50;;;;;;6259430;27;81563;-65
2023/03/06 10:14:04;;;;;;;3.47;2.45;;;24.30;34.40;;;;;;6266796;27;81710;-64
2023/03/06 10:17:05;;;;;;;3.60;2.63;;;24.40;34.40;;;;;;6261138;27;80888;-66
2023/03/06 10:20:05;;;;;;;7.07;2.78;;;24.40;34.30;;;;;;6260549;27;80860;-66
2023/03/06 10:23:06;;;;;;;3.83;2.65;;;24.40;34.20;;;;;;6257075;27;85109;-67
2023/03/06 10:26:06;;;;;;;3.67;2.33;;;24.50;34.30;;;;;;6263799;27;80806;-67
2023/03/06 10:29:07;;;;;;;6.30;2.60;;;24.60;34.30;;;;;;6259143;27;80123;-72
2023/03/06 10:32:07;;;;;;;3.78;2.05;;;24.60;34.40;;;;;;6261151;27;80255;-67
2023/03/06 10:35:08;;;;;;;4.05;2.70;;;24.60;34.40;;;;;;6261105;27;87894;-70
2023/03/06 10:38:08;;;;;;;4.35;2.15;;;24.70;34.40;;;;;;6260002;27;83241;-72
2023/03/06 10:41:09;;;;;;;4.75;2.17;;;24.70;34.40;;;;;;6267617;27;80328;-68
2023/03/06 10:44:09;;;;;;;5.93;2.78;;;24.80;34.50;;;;;;6269624;27;80759;-69
2023/03/06 10:47:10;;;;;;;5.35;2.15;;;24.80;34.40;;;;;;6258714;27;80853;-67
2023/03/06 10:50:10;;;;;;;3.05;2.10;;;24.90;34.50;;;;;;6267234;27;81006;-66
2023/03/06 10:53:11;;;;;;;3.03;2.05;;;24.90;34.60;;;;;;6252166;27;82019;-67
2023/03/06 10:56:11;;;;;;;3.45;2.30;;;24.90;34.50;;;;;;6262656;27;82859;-65
2023/03/06 10:59:12;;;;;;;2.25;1.88;;;24.90;34.50;;;;;;6261836;27;80149;-68
2023/03/06 11:02:12;;;;;;;4.47;2.70;;;24.90;34.70;;;;;;6249777;27;81380;-72
2023/03/06 11:05:13;;;;;;;4.93;2.38;;;24.80;34.90;;;;;;6257085;27;80545;-72
2023/03/06 11:08:13;;;;;;;3.28;2.35;;;24.90;35.20;;;;;;6264647;27;82879;-72
2023/03/06 11:11:14;;;;;;;2.92;2.35;;;24.80;35.20;;;;;;6269631;27;82496;-70
2023/03/06 11:14:14;;;;;;;4.20;2.08;;;24.80;35.40;;;;;;6258335;27;80720;-70
2023/03/06 11:17:15;;;;;;;4.38;2.38;;;24.90;35.30;;;;;;6245952;27;86951;-72
2023/03/06 11:20:15;;;;;;;3.40;2.35;;;25.00;35.30;;;;;;6134780;27;81723;-72
2023/03/06 11:23:16;;;;;;;3.05;2.33;;;24.90;35.30;;;;;;5798162;27;82988;-73
2023/03/06 11:26:16;;;;;;;2.45;1.80;;;25.00;35.30;;;;;;6255564;27;82422;-72
2023/03/06 11:29:17;;;;;;;2.33;1.90;;;25.10;35.20;;;;;;6264700;27;80120;-64
2023/03/06 11:32:17;;;;;;;3.60;2.40;;;25.10;35.20;;;;;;6256878;27;83352;-62
2023/03/06 11:35:18;;;;;;;2.55;1.77;;;24.90;35.00;;;;;;6256446;27;85359;-59
2023/03/06 11:38:18;;;;;;;3.33;2.40;;;24.90;35.20;;;;;;6249323;27;84453;-59
2023/03/06 11:41:19;;;;;;;2.85;2.00;;;24.90;35.40;;;;;;6264992;27;85451;-59
2023/03/06 11:44:23;;;;;;;6.57;2.25;;;24.90;35.40;;;;;;6246885;27;83228;-61
2023/03/06 11:47:24;;;;;;;9.60;3.15;;;24.90;36.10;;;;;;6254908;27;81805;-61
2023/03/06 11:50:26;;;;;;;12.10;3.88;;;24.70;36.70;;;;;;5818078;27;82965;-61
2023/03/06 11:53:30;;;;;;;8.85;2.83;;;24.60;37.10;;;;;;5610334;27;84462;-63
2023/03/06 11:56:31;;;;;;;8.50;3.47;;;24.60;37.40;;;;;;5618316;27;84203;-59
2023/03/06 11:59:35;;;;;;;7.28;3.22;;;24.50;37.30;;;;;;5620167;27;84004;-59
2023/03/06 12:02:38;;;;;;;6.07;3.25;;;24.40;37.90;;;;;;5619923;27;83247;-59
2023/03/06 12:05:42;;;;;;;7.57;3.65;;;24.40;37.70;;;;;;5582864;27;84092;-61
2023/03/06 12:08:43;;;;;;;17.90;11.43;;;24.40;38.10;;;;;;5610153;27;83474;-59
2023/03/06 12:11:44;;;;;;;11.23;8.52;;;24.40;38.20;;;;;;5592418;27;86020;-62
2023/03/06 12:14:46;;;;;;;14.38;8.90;;;24.40;38.60;;;;;;5602014;27;85550;-61
2023/03/06 12:17:47;;;;;;;10.48;8.30;;;24.40;38.50;;;;;;5586868;27;85119;-62
2023/03/06 12:20:48;;;;;;;10.75;6.20;;;24.40;38.70;;;;;;5601381;27;84697;-62
2023/03/06 12:23:50;;;;;;;9.40;5.53;;;24.40;38.50;;;;;;5625927;27;87627;-61
2023/03/06 12:26:50;;;;;;;10.50;5.78;;;24.40;38.60;;;;;;5617675;27;85381;-63
2023/03/06 12:29:51;;;;;;;6.70;4.57;;;24.40;38.30;;;;;;5623708;27;85593;-64
2023/03/06 12:32:53;;;;;;;8.68;4.72;;;24.30;38.60;;;;;;5621877;27;82919;-64
2023/03/06 12:35:54;;;;;;;8.07;4.57;;;24.30;38.30;;;;;;5598136;27;86257;-60
2023/03/06 12:38:55;;;;;;;10.20;4.15;;;24.20;38.40;;;;;;5601855;27;84261;-62
2023/03/06 12:41:56;;;;;;;13.20;3.75;;;24.20;38.60;;;;;;5617644;27;84127;-59
2023/03/06 12:44:58;;;;;;;7.82;3.78;;;24.10;39.00;;;;;;5615002;27;85584;-62
2023/03/06 12:48:02;;;;;;;6.28;3.53;;;24.00;39.10;;;;;;5623295;27;84275;-61
2023/03/06 12:51:07;;;;;;;7.57;3.30;;;23.90;39.10;;;;;;5594663;27;84576;-60
2023/03/06 12:54:08;;;;;;;9.00;3.80;;;23.80;39.20;;;;;;5624402;27;84560;-64
2023/03/06 12:57:11;;;;;;;7.85;3.67;;;23.80;39.10;;;;;;5607323;27;85141;-63
2023/03/06 13:00:12;;;;;;;5.63;3.28;;;23.80;39.40;;;;;;5759712;27;84082;-63
2023/03/06 13:03:12;;;;;;;7.88;3.42;;;23.80;38.90;;;;;;6253484;27;80514;-63
2023/03/06 13:06:13;;;;;;;6.65;3.80;;;23.80;38.90;;;;;;6266392;27;80866;-64
2023/03/06 13:09:13;;;;;;;5.93;2.75;;;23.70;38.90;;;;;;6273831;27;81668;-62
2023/03/06 13:12:14;;;;;;;6.15;2.55;;;23.70;38.70;;;;;;6261471;27;85027;-62
2023/03/06 13:15:14;;;;;;;4.85;2.78;;;23.70;38.70;;;;;;6256008;27;80515;-63
2023/03/06 13:18:15;;;;;;;6.70;3.20;;;23.60;38.60;;;;;;6266782;27;81790;-62
2023/03/06 13:21:15;;;;;;;7.10;3.35;;;23.60;38.60;;;;;;6267494;27;85034;-62
2023/03/06 13:24:16;;;;;;;5.03;3.25;;;23.50;38.80;;;;;;6263475;27;81451;-62
2023/03/06 13:27:18;;;;;;;8.25;3.53;;;23.50;38.50;;;;;;6269717;27;81643;-65
2023/03/06 13:30:18;;;;;;;6.35;3.00;;;23.50;38.70;;;;;;6263088;27;81545;-64
2023/03/06 13:33:19;;;;;;;6.00;3.30;;;23.50;38.40;;;;;;6260390;27;83623;-64
2023/03/06 13:36:19;;;;;;;4.50;2.80;;;23.50;38.00;;;;;;6264000;27;81034;-63
2023/03/06 13:39:20;;;;;;;5.38;3.50;;;23.50;37.90;;;;;;6261364;27;81156;-63
2023/03/06 13:42:20;;;;;;;6.72;3.20;;;23.40;37.70;;;;;;6253466;27;80585;-64
2023/03/06 13:45:21;;;;;;;3.75;2.95;;;23.40;37.50;;;;;;6255763;27;81393;-64
2023/03/06 13:48:21;;;;;;;5.18;2.72;;;23.40;37.40;;;;;;6271746;27;80949;-64
2023/03/06 13:51:22;;;;;;;5.53;2.67;;;23.40;37.30;;;;;;6243040;27;80794;-64
2023/03/06 13:54:22;;;;;;;7.50;2.60;;;23.40;37.20;;;;;;6262629;27;80873;-64
2023/03/06 13:57:23;;;;;;;3.42;2.58;;;23.30;36.90;;;;;;6251615;27;80502;-65
2023/03/06 14:00:23;;;;;;;5.45;3.10;;;23.30;36.80;;;;;;6260851;27;81229;-65
2023/03/06 14:03:24;;;;;;;6.90;2.88;;;23.30;36.70;;;;;;6254612;27;80655;-65
2023/03/06 14:06:25;;;;;;;3.33;2.30;;;23.30;36.60;;;;;;6259361;27;85670;-62
2023/03/06 14:09:25;;;;;;;5.90;2.30;;;23.30;36.50;;;;;;6255576;27;81766;-63
2023/03/06 14:12:26;;;;;;;3.85;2.70;;;23.20;36.70;;;;;;6260791;27;80600;-63
2023/03/06 14:15:27;;;;;;;10.50;3.00;;;23.20;37.00;;;;;;6264754;27;83333;-60
2023/03/06 14:18:27;;;;;;;6.60;4.13;;;23.20;36.90;;;;;;6258285;27;81255;-67
2023/03/06 14:21:29;;;;;;;8.27;2.90;;;22.80;37.30;;;;;;6253760;27;81316;-61
2023/03/06 14:24:30;;;;;;;7.10;3.03;;;22.90;37.60;;;;;;6256109;27;80776;-66
2023/03/06 14:27:30;;;;;;;6.40;3.30;;;22.90;37.40;;;;;;6263556;27;80807;-72
2023/03/06 14:30:31;;;;;;;8.43;2.80;;;23.00;37.00;;;;;;6244008;27;85349;-63
2023/03/06 14:33:31;;;;;;;5.35;2.88;;;22.90;37.00;;;;;;6267257;27;81970;-61
2023/03/06 14:36:32;;;;;;;7.53;2.67;;;23.00;37.40;;;;;;6261994;27;82872;-60
2023/03/06 14:39:32;;;;;;;6.13;2.67;;;23.00;37.40;;;;;;6260121;27;81286;-64
2023/03/06 14:42:33;;;;;;;8.38;2.50;;;23.00;37.30;;;;;;6264720;27;81331;-61
2023/03/06 14:45:33;;;;;;;6.00;3.08;;;23.00;37.40;;;;;;6266029;27;81683;-62
2023/03/06 14:48:34;;;;;;;9.43;3.33;;;23.10;37.50;;;;;;6265256;27;80197;-62
2023/03/06 14:51:34;;;;;;;8.82;3.22;;;23.10;38.10;;;;;;6259921;27;80943;-62
2023/03/06 14:54:38;;;;;;;10.52;3.85;;;23.10;38.70;;;;;;6247423;27;81908;-60
2023/03/06 14:57:38;;;;;;;18.13;4.70;;;23.10;39.20;;;;;;6257634;27;82204;-64
2023/03/06 15:00:39;;;;;;;9.85;4.47;;;23.10;39.60;;;;;;6255502;27;80576;-63
2023/03/06 15:03:40;;;;;;;12.90;4.45;;;23.10;39.70;;;;;;6260643;27;80455;-64
2023/03/06 15:06:40;;;;;;;11.93;3.83;;;23.10;39.60;;;;;;6255936;27;82545;-68
2023/03/06 15:09:41;;;;;;;9.05;4.25;;;23.20;39.50;;;;;;6265214;27;80422;-62
2023/03/06 15:12:41;;;;;;;8.98;3.33;;;23.20;39.50;;;;;;6269323;27;80466;-66
2023/03/06 15:15:42;;;;;;;9.95;3.78;;;23.20;39.40;;;;;;6258933;27;80770;-62
2023/03/06 15:18:42;;;;;;;9.38;3.63;;;23.20;39.40;;;;;;6266613;27;81011;-62
2023/03/06 15:21:43;;;;;;;7.63;3.38;;;23.20;39.30;;;;;;6270147;27;81133;-61
2023/03/06 15:24:43;;;;;;;9.60;3.40;;;23.20;39.20;;;;;;6257621;27;81991;-62
2023/03/06 15:27:44;;;;;;;7.72;3.33;;;23.20;39.30;;;;;;6257837;27;80530;-61
2023/03/06 15:30:44;;;;;;;7.18;3.13;;;23.20;39.20;;;;;;6253893;27;81023;-62
2023/03/06 15:33:45;;;;;;;9.15;3.70;;;23.20;39.10;;;;;;6252073;27;81000;-62
2023/03/06 15:36:46;;;;;;;7.10;3.30;;;23.20;39.00;;;;;;6254170;27;81193;-63
2023/03/06 15:39:46;;;;;;;8.52;3.20;;;23.20;39.00;;;;;;6271860;27;80479;-64